createdAt,value
2018-05-29T00:00:04.211Z,62.49
2018-05-29T00:02:32.121Z,62.66
2018-05-29T00:05:00.031Z,62.91
2018-05-29T00:07:27.957Z,63.12
2018-05-29T00:09:55.875Z,63.56
2018-05-29T00:12:23.782Z,63.73
2018-05-29T00:14:51.706Z,63.80
2018-05-29T00:17:19.640Z,64.08
2018-05-29T00:19:47.571Z,64.02
2018-05-29T00:22:15.497Z,64.08
2018-05-29T00:24:43.430Z,64.25
2018-05-29T00:27:11.344Z,64.29
2018-05-29T00:29:39.268Z,64.46
2018-05-29T00:32:07.187Z,64.68
2018-05-29T00:34:35.115Z,64.82
2018-05-29T00:37:03.333Z,65.06
2018-05-29T00:39:31.226Z,65.33
2018-05-29T00:41:59.158Z,65.38
2018-05-29T00:44:27.283Z,65.62
2018-05-29T00:46:55.188Z,65.47
2018-05-29T00:49:23.120Z,65.82
2018-05-29T00:51:51.993Z,65.77
2018-05-29T00:54:19.945Z,65.81
2018-05-29T00:56:47.861Z,66.27
2018-05-29T00:59:15.764Z,66.34
2018-05-29T01:01:43.690Z,65.89
2018-05-29T01:04:11.607Z,66.33
2018-05-29T01:06:39.539Z,66.34
2018-05-29T01:09:07.450Z,66.40
2018-05-29T01:11:35.365Z,66.75
2018-05-29T01:14:03.620Z,67.30
2018-05-29T01:16:31.528Z,67.43
2018-05-29T01:18:59.473Z,67.82
2018-05-29T01:21:27.402Z,68.00
2018-05-29T01:23:55.328Z,68.16
2018-05-29T01:26:23.246Z,68.36
2018-05-29T01:28:51.154Z,68.56
2018-05-29T01:31:19.057Z,68.68
2018-05-29T01:33:46.978Z,68.99
2018-05-29T01:36:14.907Z,69.23
2018-05-29T01:38:43.192Z,69.28
2018-05-29T01:41:11.123Z,69.50
2018-05-29T01:43:39.040Z,69.63
2018-05-29T01:46:06.977Z,69.49
2018-05-29T01:48:35.279Z,69.73
2018-05-29T01:51:03.273Z,69.68
2018-05-29T01:53:31.176Z,69.69
2018-05-29T01:55:59.135Z,69.41
2018-05-29T01:58:27.051Z,69.32
2018-05-29T02:00:54.976Z,69.36
2018-05-29T02:03:22.888Z,70.23
2018-05-29T02:05:50.816Z,69.45
2018-05-29T02:08:18.832Z,69.64
2018-05-29T02:10:46.752Z,69.33
2018-05-29T02:13:14.682Z,69.64
2018-05-29T02:15:42.604Z,69.61
2018-05-29T02:18:10.532Z,69.61
2018-05-29T02:20:38.452Z,69.55
2018-05-29T02:23:06.376Z,69.47
2018-05-29T02:25:34.426Z,69.79
2018-05-29T02:28:02.323Z,69.82
2018-05-29T02:30:30.225Z,69.56
2018-05-29T02:32:58.656Z,69.88
2018-05-29T02:35:26.571Z,69.79
2018-05-29T02:37:54.563Z,70.13
2018-05-29T02:40:22.500Z,70.01
2018-05-29T02:42:50.432Z,70.07
2018-05-29T02:45:18.383Z,70.35
2018-05-29T02:47:47.296Z,70.39
2018-05-29T02:50:15.232Z,70.52
2018-05-29T02:52:43.168Z,70.30
2018-05-29T02:55:11.104Z,70.83
2018-05-29T02:57:39.013Z,70.90
2018-05-29T03:00:06.953Z,70.71
2018-05-29T03:02:34.867Z,70.73
2018-05-29T03:05:02.774Z,70.77
2018-05-29T03:07:30.707Z,70.71
2018-05-29T03:09:58.637Z,70.86
2018-05-29T03:12:26.580Z,70.71
2018-05-29T03:14:54.501Z,70.92
2018-05-29T03:17:22.443Z,71.07
2018-05-29T03:19:50.374Z,70.88
2018-05-29T03:22:18.304Z,71.08
2018-05-29T03:24:46.256Z,70.54
2018-05-29T03:27:14.166Z,70.63
2018-05-29T03:29:42.092Z,70.52
2018-05-29T03:32:10.136Z,70.36
2018-05-29T03:34:38.150Z,70.52
2018-05-29T03:37:06.077Z,70.52
2018-05-29T03:39:34.029Z,70.72
2018-05-29T03:42:02.140Z,70.70
2018-05-29T03:44:30.077Z,70.58
2018-05-29T03:46:57.992Z,70.67
2018-05-29T03:49:25.926Z,70.68
2018-05-29T03:51:53.841Z,70.47
2018-05-29T03:54:21.824Z,70.62
2018-05-29T03:56:49.747Z,70.31
2018-05-29T03:59:17.991Z,70.08
2018-05-29T04:01:45.928Z,69.97
2018-05-29T04:04:14.014Z,69.59
2018-05-29T04:06:41.957Z,69.63
2018-05-29T04:09:09.882Z,69.52
2018-05-29T04:11:37.820Z,69.59
2018-05-29T04:14:05.740Z,69.64
2018-05-29T04:16:33.678Z,69.20
2018-05-29T04:19:01.601Z,68.87
2018-05-29T04:21:30.308Z,68.97
2018-05-29T04:23:58.220Z,68.63
2018-05-29T04:26:26.142Z,68.71
2018-05-29T04:28:54.079Z,68.56
2018-05-29T04:31:22.007Z,68.12
2018-05-29T04:33:49.925Z,68.07
2018-05-29T04:36:17.857Z,67.78
2018-05-29T04:38:45.779Z,67.82
2018-05-29T04:41:13.720Z,67.88
2018-05-29T04:43:41.652Z,67.61
2018-05-29T04:46:09.545Z,67.62
2018-05-29T04:48:37.448Z,67.62
2018-05-29T04:51:05.405Z,67.46
2018-05-29T04:53:33.316Z,67.19
2018-05-29T04:56:01.579Z,67.41
2018-05-29T04:58:29.508Z,67.07
2018-05-29T05:00:57.428Z,66.77
2018-05-29T05:03:25.437Z,67.04
2018-05-29T05:05:53.355Z,66.79
2018-05-29T05:08:21.289Z,66.65
2018-05-29T05:10:49.221Z,66.48
2018-05-29T05:13:17.252Z,66.03
2018-05-29T05:15:45.181Z,66.10
2018-05-29T05:18:13.100Z,65.47
2018-05-29T05:20:41.183Z,65.46
2018-05-29T05:23:09.105Z,65.56
2018-05-29T05:25:37.016Z,65.73
2018-05-29T05:28:04.953Z,65.41
2018-05-29T05:30:32.859Z,65.35
2018-05-29T05:33:00.793Z,65.24
2018-05-29T05:35:28.728Z,65.08
2018-05-29T05:37:56.657Z,64.73
2018-05-29T05:40:24.593Z,64.63
2018-05-29T05:42:52.522Z,64.31
2018-05-29T05:45:20.450Z,64.11
2018-05-29T05:47:48.421Z,64.05
2018-05-29T05:50:16.360Z,63.70
2018-05-29T05:52:44.355Z,63.22
2018-05-29T05:55:12.210Z,63.34
2018-05-29T05:57:40.133Z,63.00
2018-05-29T06:00:08.050Z,62.21
2018-05-29T06:02:36.054Z,61.92
2018-05-29T06:05:04.004Z,62.27
2018-05-29T06:07:31.913Z,62.41
2018-05-29T06:09:59.852Z,62.13
2018-05-29T06:12:27.800Z,61.31
2018-05-29T06:14:55.736Z,61.81
2018-05-29T06:17:23.667Z,61.41
2018-05-29T06:19:51.609Z,61.15
2018-05-29T06:22:19.537Z,61.46
2018-05-29T06:24:47.517Z,60.95
2018-05-29T06:27:15.433Z,60.92
2018-05-29T06:29:43.430Z,60.58
2018-05-29T06:32:11.354Z,60.89
2018-05-29T06:34:39.279Z,60.52
2018-05-29T06:37:07.241Z,60.21
2018-05-29T06:39:35.266Z,60.54
2018-05-29T06:42:03.166Z,60.05
2018-05-29T06:44:31.097Z,60.06
2018-05-29T06:46:59.073Z,59.85
2018-05-29T06:49:27.053Z,59.52
2018-05-29T06:51:54.999Z,59.55
2018-05-29T06:54:22.936Z,58.44
2018-05-29T06:56:50.880Z,57.52
2018-05-29T06:59:18.796Z,57.11
2018-05-29T07:01:46.735Z,56.94
2018-05-29T07:04:14.649Z,57.69
2018-05-29T07:06:42.593Z,55.49
2018-05-29T07:09:10.788Z,54.99
2018-05-29T07:11:38.704Z,54.57
2018-05-29T07:14:06.588Z,53.10
2018-05-29T07:16:34.504Z,52.63
2018-05-29T07:19:02.455Z,51.78
2018-05-29T07:21:30.383Z,52.75
2018-05-29T07:23:58.334Z,51.75
2018-05-29T07:26:26.260Z,51.79
2018-05-29T07:28:54.168Z,50.21
2018-05-29T07:31:22.121Z,49.95
2018-05-29T07:33:50.048Z,50.01
2018-05-29T07:36:17.971Z,49.82
2018-05-29T07:38:45.952Z,49.52
2018-05-29T07:41:13.885Z,48.38
2018-05-29T07:43:41.787Z,48.18
2018-05-29T07:46:09.718Z,47.57
2018-05-29T07:48:37.648Z,47.86
2018-05-29T07:51:05.565Z,48.33
2018-05-29T07:53:33.490Z,47.80
2018-05-29T07:56:02.044Z,46.88
2018-05-29T07:58:29.968Z,44.42
2018-05-29T08:00:57.877Z,44.88
2018-05-29T08:03:25.861Z,44.54
2018-05-29T08:05:53.777Z,44.80
2018-05-29T08:08:21.795Z,45.06
2018-05-29T08:10:49.733Z,44.39
2018-05-29T08:13:17.643Z,41.94
2018-05-29T08:15:45.570Z,42.10
2018-05-29T08:18:13.520Z,42.16
2018-05-29T08:20:41.452Z,41.57
2018-05-29T08:23:09.400Z,40.76
2018-05-29T08:25:37.324Z,41.82
2018-05-29T08:28:05.298Z,40.76
2018-05-29T08:30:33.234Z,40.55
2018-05-29T08:33:01.210Z,41.33
2018-05-29T08:35:29.142Z,39.68
2018-05-29T08:37:57.151Z,39.57
2018-05-29T08:40:25.077Z,39.54
2018-05-29T08:42:53.012Z,38.84
2018-05-29T08:45:20.952Z,39.33
2018-05-29T08:47:48.901Z,38.78
2018-05-29T08:50:16.834Z,38.42
2018-05-29T08:52:44.751Z,38.31
2018-05-29T08:55:12.703Z,37.41
2018-05-29T08:57:40.634Z,37.85
2018-05-29T09:00:08.573Z,37.34
2018-05-29T09:02:36.501Z,37.18
2018-05-29T09:05:04.434Z,36.69
2018-05-29T09:07:32.370Z,36.64
2018-05-29T09:10:00.289Z,37.17
2018-05-29T09:12:28.237Z,37.53
2018-05-29T09:14:56.156Z,35.85
2018-05-29T09:17:24.100Z,36.61
2018-05-29T09:19:52.035Z,36.21
2018-05-29T09:22:19.960Z,36.54
2018-05-29T09:24:47.888Z,36.14
2018-05-29T09:27:15.858Z,36.59
2018-05-29T09:29:43.844Z,35.43
2018-05-29T09:32:11.776Z,34.50
2018-05-29T09:34:39.694Z,36.89
2018-05-29T09:37:07.624Z,34.50
2018-05-29T09:39:35.565Z,34.12
2018-05-29T09:42:03.495Z,33.60
2018-05-29T09:44:31.472Z,33.09
2018-05-29T09:46:59.411Z,33.30
2018-05-29T09:49:27.402Z,32.50
2018-05-29T09:51:55.304Z,32.58
2018-05-29T09:54:23.216Z,31.24
2018-05-29T09:56:51.179Z,30.63
2018-05-29T09:59:19.197Z,30.38
2018-05-29T10:01:47.179Z,31.32
2018-05-29T10:04:15.083Z,29.93
2018-05-29T10:06:43.016Z,28.94
2018-05-29T10:09:10.919Z,29.39
2018-05-29T10:11:38.888Z,29.22
2018-05-29T10:14:07.711Z,29.71
2018-05-29T10:16:35.636Z,29.59
2018-05-29T10:19:03.568Z,30.74
2018-05-29T10:21:31.502Z,29.68
2018-05-29T10:23:59.420Z,29.72
2018-05-29T10:26:27.373Z,29.39
2018-05-29T10:28:55.312Z,29.19
2018-05-29T10:31:23.273Z,29.74
2018-05-29T10:33:51.285Z,28.85
2018-05-29T10:36:19.193Z,29.30
2018-05-29T10:38:47.157Z,28.59
2018-05-29T10:41:15.062Z,28.55
2018-05-29T10:43:43.059Z,29.23
2018-05-29T10:46:10.988Z,28.60
2018-05-29T10:48:38.916Z,27.97
2018-05-29T10:51:06.859Z,28.21
2018-05-29T10:53:34.800Z,28.35
2018-05-29T10:56:02.728Z,29.06
2018-05-29T10:58:30.641Z,28.98
2018-05-29T11:00:58.591Z,29.13
2018-05-29T11:03:26.506Z,28.14
2018-05-29T11:05:54.423Z,27.60
2018-05-29T11:08:22.344Z,28.32
2018-05-29T11:10:50.266Z,27.92
2018-05-29T11:13:18.196Z,28.06
2018-05-29T11:15:46.125Z,27.58
2018-05-29T11:18:14.098Z,28.13
2018-05-29T11:20:42.005Z,27.16
2018-05-29T11:23:10.373Z,27.98
2018-05-29T11:25:39.099Z,29.09
2018-05-29T11:28:07.006Z,29.01
2018-05-29T11:30:35.004Z,29.37
2018-05-29T11:33:02.929Z,28.32
2018-05-29T11:35:30.907Z,27.42
2018-05-29T11:37:58.830Z,28.57
2018-05-29T11:40:26.741Z,28.93
2018-05-29T11:42:54.680Z,29.43
2018-05-29T11:45:22.937Z,28.63
2018-05-29T11:47:51.622Z,28.13
2018-05-29T11:50:19.534Z,29.33
2018-05-29T11:52:47.443Z,29.49
2018-05-29T11:55:15.412Z,29.31
2018-05-29T11:57:43.308Z,29.38
2018-05-29T12:00:11.239Z,28.51
2018-05-29T12:02:39.147Z,28.03
2018-05-29T12:05:07.060Z,27.82
2018-05-29T12:07:35.030Z,28.18
2018-05-29T12:10:02.919Z,27.75
2018-05-29T12:12:30.835Z,26.34
2018-05-29T12:14:58.760Z,27.09
2018-05-29T12:17:26.676Z,26.94
2018-05-29T12:19:54.594Z,25.98
2018-05-29T12:22:22.566Z,26.32
2018-05-29T12:24:50.463Z,25.83
2018-05-29T12:27:18.368Z,25.68
2018-05-29T12:29:46.288Z,26.62
2018-05-29T12:32:14.203Z,26.49
2018-05-29T12:34:42.133Z,27.31
2018-05-29T12:37:10.050Z,27.07
2018-05-29T12:39:37.995Z,26.91
2018-05-29T12:42:05.906Z,26.99
2018-05-29T12:44:33.834Z,26.13
2018-05-29T12:47:01.743Z,25.35
2018-05-29T12:49:29.669Z,26.10
2018-05-29T12:51:57.572Z,26.52
2018-05-29T12:54:25.520Z,26.50
2018-05-29T12:56:53.411Z,27.10
2018-05-29T12:59:21.336Z,27.23
2018-05-29T13:01:49.251Z,27.03
2018-05-29T13:04:17.216Z,27.44
2018-05-29T13:06:45.121Z,27.76
2018-05-29T13:09:13.039Z,27.79
2018-05-29T13:11:40.981Z,28.03
2018-05-29T13:14:08.887Z,27.95
2018-05-29T13:16:36.828Z,27.96
2018-05-29T13:19:04.728Z,26.92
2018-05-29T13:21:32.670Z,27.33
2018-05-29T13:24:00.596Z,26.65
2018-05-29T13:26:28.514Z,26.03
2018-05-29T13:28:56.430Z,25.92
2018-05-29T13:31:24.358Z,26.26
2018-05-29T13:33:52.283Z,26.80
2018-05-29T13:36:20.220Z,27.11
2018-05-29T13:38:48.117Z,28.01
2018-05-29T13:41:16.056Z,28.40
2018-05-29T13:43:43.961Z,27.33
2018-05-29T13:46:11.887Z,27.62
2018-05-29T13:48:39.803Z,27.94
2018-05-29T13:51:07.731Z,27.42
2018-05-29T13:53:35.649Z,26.76
2018-05-29T13:56:03.577Z,27.14
2018-05-29T13:58:31.474Z,27.77
2018-05-29T14:00:59.385Z,27.88
2018-05-29T14:03:27.326Z,27.46
2018-05-29T14:05:55.214Z,27.71
2018-05-29T14:08:23.161Z,27.52
2018-05-29T14:10:51.072Z,27.78
2018-05-29T14:13:18.979Z,28.33
2018-05-29T14:15:46.903Z,28.70
2018-05-29T14:18:14.823Z,29.73
2018-05-29T14:20:42.746Z,30.64
2018-05-29T14:23:10.677Z,31.94
2018-05-29T14:25:38.588Z,32.03
2018-05-29T14:28:06.505Z,32.73
2018-05-29T14:30:34.435Z,32.41
2018-05-29T14:33:02.363Z,33.15
2018-05-29T14:35:30.277Z,33.15
2018-05-29T14:37:58.374Z,33.67
2018-05-29T14:40:26.301Z,33.38
2018-05-29T14:42:54.227Z,34.36
2018-05-29T14:45:22.154Z,33.97
2018-05-29T14:47:50.096Z,35.09
2018-05-29T14:50:18.354Z,35.84
2018-05-29T14:52:46.277Z,34.47
2018-05-29T14:55:14.188Z,34.92
2018-05-29T14:57:42.884Z,34.57
2018-05-29T15:00:10.797Z,35.63
2018-05-29T15:02:38.750Z,33.07
2018-05-29T15:05:06.666Z,33.60
2018-05-29T15:07:34.599Z,33.78
2018-05-29T15:10:02.529Z,34.86
2018-05-29T15:12:30.429Z,34.74
2018-05-29T15:14:58.380Z,35.89
2018-05-29T15:17:26.282Z,35.77
2018-05-29T15:19:54.213Z,36.00
2018-05-29T15:22:22.130Z,35.43
2018-05-29T15:24:50.055Z,35.76
2018-05-29T15:27:18.002Z,36.37
2018-05-29T15:29:45.932Z,36.49
2018-05-29T15:32:13.844Z,36.49
2018-05-29T15:34:41.772Z,36.34
2018-05-29T15:37:09.711Z,38.03
2018-05-29T15:39:37.648Z,37.11
2018-05-29T15:42:05.586Z,37.85
2018-05-29T15:44:33.527Z,37.61
2018-05-29T15:47:01.480Z,38.15
2018-05-29T15:49:29.426Z,38.27
2018-05-29T15:51:57.421Z,39.03
2018-05-29T15:54:25.388Z,38.59
2018-05-29T15:56:53.340Z,38.14
2018-05-29T15:59:21.316Z,39.21
2018-05-29T16:01:49.275Z,38.68
2018-05-29T16:04:17.248Z,39.26
2018-05-29T16:06:45.176Z,38.28
2018-05-29T16:09:13.110Z,37.98
2018-05-29T16:11:41.043Z,37.98
2018-05-29T16:14:09.016Z,38.48
2018-05-29T16:16:36.952Z,38.61
2018-05-29T16:19:04.868Z,38.19
2018-05-29T16:21:32.820Z,37.91
2018-05-29T16:24:00.777Z,38.47
2018-05-29T16:26:28.924Z,38.72
2018-05-29T16:28:56.817Z,39.34
2018-05-29T16:31:25.635Z,38.94
2018-05-29T16:33:53.604Z,39.25
2018-05-29T16:36:21.559Z,38.72
2018-05-29T16:38:49.483Z,39.47
2018-05-29T16:41:17.488Z,38.86
2018-05-29T16:43:45.416Z,39.58
2018-05-29T16:46:13.341Z,40.17
2018-05-29T16:48:41.252Z,40.38
2018-05-29T16:51:09.228Z,39.88
2018-05-29T16:53:37.114Z,40.69
2018-05-29T16:56:06.163Z,40.88
2018-05-29T16:58:34.084Z,40.13
2018-05-29T17:01:02.007Z,40.10
2018-05-29T17:03:29.989Z,40.22
2018-05-29T17:05:57.917Z,41.45
2018-05-29T17:08:25.864Z,41.46
2018-05-29T17:10:53.803Z,40.54
2018-05-29T17:13:21.724Z,40.79
2018-05-29T17:15:49.673Z,42.36
2018-05-29T17:18:17.655Z,41.20
2018-05-29T17:20:46.201Z,41.78
2018-05-29T17:23:14.104Z,41.81
2018-05-29T17:25:42.164Z,42.24
2018-05-29T17:28:10.403Z,42.26
2018-05-29T17:30:38.364Z,42.45
2018-05-29T17:33:06.265Z,42.15
2018-05-29T17:35:34.364Z,42.65
2018-05-29T17:38:02.249Z,41.91
2018-05-29T17:40:30.193Z,41.80
2018-05-29T17:42:58.092Z,42.03
2018-05-29T17:45:26.068Z,43.21
2018-05-29T17:47:53.976Z,43.04
2018-05-29T17:50:21.899Z,43.45
2018-05-29T17:52:49.830Z,43.67
2018-05-29T17:55:17.752Z,43.49
2018-05-29T17:57:45.725Z,44.06
2018-05-29T18:00:13.638Z,43.87
2018-05-29T18:02:41.557Z,43.90
2018-05-29T18:05:09.629Z,44.22
2018-05-29T18:07:37.605Z,44.01
2018-05-29T18:10:05.516Z,44.42
2018-05-29T18:12:33.437Z,45.16
2018-05-29T18:15:01.370Z,45.09
2018-05-29T18:17:29.428Z,45.17
2018-05-29T18:19:57.344Z,46.13
2018-05-29T18:22:25.308Z,45.21
2018-05-29T18:24:53.247Z,45.73
2018-05-29T18:27:21.150Z,46.25
2018-05-29T18:29:49.107Z,46.52
2018-05-29T18:32:17.097Z,46.77
2018-05-29T18:34:45.029Z,46.32
2018-05-29T18:37:13.010Z,46.58
2018-05-29T18:39:40.956Z,47.28
2018-05-29T18:42:08.872Z,46.62
2018-05-29T18:44:36.790Z,46.78
2018-05-29T18:47:04.723Z,46.84
2018-05-29T18:49:33.118Z,47.44
2018-05-29T18:52:01.069Z,47.19
2018-05-29T18:54:28.990Z,46.99
2018-05-29T18:56:56.925Z,46.69
2018-05-29T18:59:24.849Z,47.24
2018-05-29T19:01:52.804Z,47.69
2018-05-29T19:04:20.733Z,47.38
2018-05-29T19:06:49.955Z,47.18
2018-05-29T19:09:17.948Z,47.92
2018-05-29T19:11:45.863Z,48.74
2018-05-29T19:14:13.801Z,48.05
2018-05-29T19:16:41.809Z,48.56
2018-05-29T19:19:09.684Z,48.27
2018-05-29T19:21:37.602Z,47.70
2018-05-29T19:24:05.527Z,47.69
2018-05-29T19:26:34.164Z,48.05
2018-05-29T19:29:02.206Z,48.38
2018-05-29T19:31:30.155Z,48.71
2018-05-29T19:33:58.068Z,48.65
2018-05-29T19:36:25.993Z,48.95
2018-05-29T19:38:53.937Z,49.05
2018-05-29T19:41:23.464Z,49.24
2018-05-29T19:43:51.417Z,49.58
2018-05-29T19:46:19.353Z,49.34
2018-05-29T19:48:47.271Z,49.37
2018-05-29T19:51:15.272Z,49.66
2018-05-29T19:53:44.102Z,50.56
2018-05-29T19:56:12.028Z,50.25
2018-05-29T19:58:40.011Z,50.18
2018-05-29T20:01:08.070Z,50.57
2018-05-29T20:03:36.021Z,50.85
2018-05-29T20:06:03.968Z,51.22
2018-05-29T20:08:31.899Z,51.44
2018-05-29T20:10:59.947Z,51.61
2018-05-29T20:13:27.907Z,51.74
2018-05-29T20:15:56.557Z,51.82
2018-05-29T20:18:24.625Z,51.43
2018-05-29T20:20:52.799Z,52.02
2018-05-29T20:23:20.824Z,52.04
2018-05-29T20:25:48.828Z,52.07
2018-05-29T20:28:16.838Z,52.58
2018-05-29T20:30:44.793Z,52.93
2018-05-29T20:33:12.740Z,53.55
2018-05-29T20:35:40.672Z,52.62
2018-05-29T20:38:09.025Z,52.72
2018-05-29T20:40:37.049Z,53.30
2018-05-29T20:43:04.987Z,53.46
2018-05-29T20:45:32.922Z,53.58
2018-05-29T20:48:00.831Z,54.33
2018-05-29T20:50:29.616Z,53.94
2018-05-29T20:52:57.705Z,54.18
2018-05-29T20:55:25.679Z,54.26
2018-05-29T20:57:53.561Z,54.56
2018-05-29T21:00:21.489Z,54.75
2018-05-29T21:02:49.404Z,54.99
2018-05-29T21:05:17.315Z,54.68
2018-05-29T21:07:45.447Z,55.13
2018-05-29T21:10:13.386Z,55.20
2018-05-29T21:12:41.313Z,55.71
2018-05-29T21:15:09.229Z,55.26
2018-05-29T21:17:37.149Z,55.47
2018-05-29T21:20:05.081Z,55.98
2018-05-29T21:22:32.989Z,55.82
2018-05-29T21:25:00.903Z,56.30
2018-05-29T21:27:28.807Z,57.10
2018-05-29T21:29:56.739Z,57.32
2018-05-29T21:32:24.669Z,57.78
2018-05-29T21:34:52.717Z,56.58
2018-05-29T21:37:20.702Z,57.31
2018-05-29T21:39:48.664Z,57.78
2018-05-29T21:42:16.641Z,58.35
2018-05-29T21:44:44.621Z,57.23
2018-05-29T21:47:12.561Z,57.60
2018-05-29T21:49:41.170Z,57.55
2018-05-29T21:52:09.117Z,57.65
2018-05-29T21:54:37.065Z,58.09
2018-05-29T21:57:04.977Z,57.93
2018-05-29T21:59:32.898Z,58.52
2018-05-29T22:02:00.868Z,58.73
2018-05-29T22:04:29.576Z,58.56
2018-05-29T22:06:57.550Z,58.17
2018-05-29T22:09:25.492Z,59.28
2018-05-29T22:11:53.436Z,59.14
2018-05-29T22:14:22.199Z,59.11
2018-05-29T22:16:50.143Z,59.48
2018-05-29T22:19:18.121Z,60.08
2018-05-29T22:21:46.052Z,59.79
2018-05-29T22:24:14.024Z,59.30
2018-05-29T22:26:41.945Z,59.23
2018-05-29T22:29:09.862Z,60.22
2018-05-29T22:31:37.793Z,59.81
2018-05-29T22:34:05.696Z,59.76
2018-05-29T22:36:33.657Z,60.41
2018-05-29T22:39:01.587Z,60.64
2018-05-29T22:41:29.527Z,60.58
2018-05-29T22:43:57.457Z,60.87
2018-05-29T22:46:25.359Z,61.25
2018-05-29T22:48:53.368Z,60.60
2018-05-29T22:51:21.269Z,60.91
2018-05-29T22:53:49.255Z,61.43
2018-05-29T22:56:17.168Z,61.44
2018-05-29T22:58:45.117Z,60.53
2018-05-29T23:01:13.077Z,60.65
2018-05-29T23:03:41.020Z,60.25
2018-05-29T23:06:08.970Z,60.00
2018-05-29T23:08:36.888Z,61.15
2018-05-29T23:11:04.833Z,61.01
2018-05-29T23:13:32.741Z,60.60
2018-05-29T23:16:00.669Z,60.44
2018-05-29T23:18:28.646Z,60.93
2018-05-29T23:20:56.556Z,62.14
2018-05-29T23:23:24.553Z,60.90
2018-05-29T23:25:52.461Z,61.73
2018-05-29T23:28:20.386Z,61.30
2018-05-29T23:30:48.345Z,61.43
2018-05-29T23:33:16.294Z,61.72
2018-05-29T23:35:44.221Z,61.79
2018-05-29T23:38:12.161Z,61.91
2018-05-29T23:40:40.073Z,62.47
2018-05-29T23:43:07.995Z,62.98
2018-05-29T23:45:35.932Z,63.03
2018-05-29T23:48:03.866Z,63.31
2018-05-29T23:50:31.834Z,63.50
2018-05-29T23:52:59.747Z,63.50
2018-05-29T23:55:27.897Z,63.50
2018-05-29T23:57:55.879Z,63.56
